sensor_id;sensor_type;location;lat;lon;timestamp;temperature;humidity
11005;DHT22;5555;59.622;16.556;2023-09-19T00:01:08;16.00;99.90
11005;DHT22;5555;59.622;16.556;2023-09-19T00:03:35;16.00;99.90
11005;DHT22;5555;59.622;16.556;2023-09-19T00:06:04;16.00;99.90
11005;DHT22;5555;59.622;16.556;2023-09-19T00:08:34;15.90;99.90
11005;DHT22;5555;59.622;16.556;2023-09-19T00:10:59;16.00;99.90
11005;DHT22;5555;59.622;16.556;2023-09-19T00:15:57;16.00;99.90
11005;DHT22;5555;59.622;16.556;2023-09-19T00:18:24;16.00;99.90
11005;DHT22;5555;59.622;16.556;2023-09-19T00:20:57;16.00;99.90
11005;DHT22;5555;59.622;16.556;2023-09-19T00:23:22;16.00;99.90
11005;DHT22;5555;59.622;16.556;2023-09-19T00:25:50;15.90;99.90
11005;DHT22;5555;59.622;16.556;2023-09-19T00:28:17;16.00;99.90
11005;DHT22;5555;59.622;16.556;2023-09-19T00:30:44;16.00;99.90
11005;DHT22;5555;59.622;16.556;2023-09-19T00:33:10;16.00;99.90
11005;DHT22;5555;59.622;16.556;2023-09-19T00:35:47;16.00;99.90
11005;DHT22;5555;59.622;16.556;2023-09-19T00:38:13;15.80;99.90
11005;DHT22;5555;59.622;16.556;2023-09-19T00:40:44;16.00;99.90
11005;DHT22;5555;59.622;16.556;2023-09-19T00:43:10;16.10;99.90
11005;DHT22;5555;59.622;16.556;2023-09-19T00:45:37;16.00;99.90
11005;DHT22;5555;59.622;16.556;2023-09-19T00:48:04;16.10;99.90
11005;DHT22;5555;59.622;16.556;2023-09-19T00:50:31;16.10;99.90
11005;DHT22;5555;59.622;16.556;2023-09-19T00:52:58;16.20;99.90
11005;DHT22;5555;59.622;16.556;2023-09-19T00:55:25;16.20;99.90
11005;DHT22;5555;59.622;16.556;2023-09-19T00:57:51;16.20;99.90
11005;DHT22;5555;59.622;16.556;2023-09-19T01:00:18;16.20;99.90
11005;DHT22;5555;59.622;16.556;2023-09-19T01:02:45;16.20;99.90
11005;DHT22;5555;59.622;16.556;2023-09-19T01:05:12;16.30;99.90
11005;DHT22;5555;59.622;16.556;2023-09-19T01:07:41;16.30;99.90
11005;DHT22;5555;59.622;16.556;2023-09-19T01:10:12;16.30;99.90
11005;DHT22;5555;59.622;16.556;2023-09-19T01:18:02;16.30;99.90
11005;DHT22;5555;59.622;16.556;2023-09-19T01:21:05;16.30;99.90
11005;DHT22;5555;59.622;16.556;2023-09-19T01:29:46;16.30;99.90
11005;DHT22;5555;59.622;16.556;2023-09-19T01:32:17;16.30;99.90
11005;DHT22;5555;59.622;16.556;2023-09-19T01:34:48;16.30;99.90
11005;DHT22;5555;59.622;16.556;2023-09-19T01:37:15;16.30;99.90
11005;DHT22;5555;59.622;16.556;2023-09-19T01:39:46;16.30;99.90
11005;DHT22;5555;59.622;16.556;2023-09-19T01:47:52;16.30;99.90
11005;DHT22;5555;59.622;16.556;2023-09-19T01:50:32;16.30;99.90
11005;DHT22;5555;59.622;16.556;2023-09-19T01:53:05;16.30;99.90
11005;DHT22;5555;59.622;16.556;2023-09-19T01:55:37;16.30;99.90
11005;DHT22;5555;59.622;16.556;2023-09-19T02:00:41;16.30;99.90
11005;DHT22;5555;59.622;16.556;2023-09-19T02:03:09;16.30;99.90
11005;DHT22;5555;59.622;16.556;2023-09-19T02:05:35;16.30;99.90
11005;DHT22;5555;59.622;16.556;2023-09-19T02:08:01;16.30;99.90
11005;DHT22;5555;59.622;16.556;2023-09-19T02:10:26;16.30;99.90
11005;DHT22;5555;59.622;16.556;2023-09-19T02:12:52;16.30;99.90
11005;DHT22;5555;59.622;16.556;2023-09-19T02:15:18;16.40;99.90
11005;DHT22;5555;59.622;16.556;2023-09-19T02:17:44;16.30;99.90
11005;DHT22;5555;59.622;16.556;2023-09-19T02:20:12;16.30;99.90
11005;DHT22;5555;59.622;16.556;2023-09-19T02:22:43;16.30;99.90
11005;DHT22;5555;59.622;16.556;2023-09-19T02:25:09;16.30;99.90
11005;DHT22;5555;59.622;16.556;2023-09-19T02:27:36;16.30;99.90
11005;DHT22;5555;59.622;16.556;2023-09-19T02:30:03;16.30;99.90
11005;DHT22;5555;59.622;16.556;2023-09-19T02:32:29;16.20;99.90
11005;DHT22;5555;59.622;16.556;2023-09-19T02:34:57;16.20;99.90
11005;DHT22;5555;59.622;16.556;2023-09-19T02:37:23;16.20;99.90
11005;DHT22;5555;59.622;16.556;2023-09-19T02:39:48;16.20;99.90
11005;DHT22;5555;59.622;16.556;2023-09-19T02:42:14;16.30;99.90
11005;DHT22;5555;59.622;16.556;2023-09-19T02:44:40;16.30;99.90
11005;DHT22;5555;59.622;16.556;2023-09-19T02:47:05;16.30;99.90
11005;DHT22;5555;59.622;16.556;2023-09-19T02:49:31;16.30;99.90
11005;DHT22;5555;59.622;16.556;2023-09-19T02:51:57;16.20;99.90
11005;DHT22;5555;59.622;16.556;2023-09-19T02:54:24;16.30;99.90
11005;DHT22;5555;59.622;16.556;2023-09-19T02:56:50;16.20;99.90
11005;DHT22;5555;59.622;16.556;2023-09-19T02:59:15;16.30;99.90
11005;DHT22;5555;59.622;16.556;2023-09-19T03:01:43;16.30;99.90
11005;DHT22;5555;59.622;16.556;2023-09-19T03:04:09;16.30;99.90
11005;DHT22;5555;59.622;16.556;2023-09-19T03:06:36;16.30;99.90
11005;DHT22;5555;59.622;16.556;2023-09-19T03:09:03;16.30;99.90
11005;DHT22;5555;59.622;16.556;2023-09-19T03:11:31;16.30;99.90
11005;DHT22;5555;59.622;16.556;2023-09-19T03:13:57;16.30;99.90
11005;DHT22;5555;59.622;16.556;2023-09-19T03:16:23;16.30;99.90
11005;DHT22;5555;59.622;16.556;2023-09-19T03:18:50;16.30;99.90
11005;DHT22;5555;59.622;16.556;2023-09-19T03:21:16;16.30;99.90
11005;DHT22;5555;59.622;16.556;2023-09-19T03:23:42;16.30;99.90
11005;DHT22;5555;59.622;16.556;2023-09-19T03:26:11;16.30;99.90
11005;DHT22;5555;59.622;16.556;2023-09-19T03:28:38;16.30;99.90
11005;DHT22;5555;59.622;16.556;2023-09-19T03:31:05;16.30;99.90
11005;DHT22;5555;59.622;16.556;2023-09-19T03:33:31;16.30;99.90
11005;DHT22;5555;59.622;16.556;2023-09-19T03:35:58;16.30;99.90
11005;DHT22;5555;59.622;16.556;2023-09-19T03:38:25;16.30;99.90
11005;DHT22;5555;59.622;16.556;2023-09-19T03:40:50;16.30;99.90
11005;DHT22;5555;59.622;16.556;2023-09-19T03:43:16;16.30;99.90
11005;DHT22;5555;59.622;16.556;2023-09-19T03:45:42;16.40;99.90
11005;DHT22;5555;59.622;16.556;2023-09-19T03:48:11;16.40;99.90
11005;DHT22;5555;59.622;16.556;2023-09-19T03:50:37;16.40;99.90
11005;DHT22;5555;59.622;16.556;2023-09-19T03:53:03;16.40;99.90
11005;DHT22;5555;59.622;16.556;2023-09-19T03:55:29;16.40;99.90
11005;DHT22;5555;59.622;16.556;2023-09-19T03:57:57;16.40;99.90
11005;DHT22;5555;59.622;16.556;2023-09-19T04:00:23;16.40;99.90
11005;DHT22;5555;59.622;16.556;2023-09-19T04:02:52;16.40;99.90
11005;DHT22;5555;59.622;16.556;2023-09-19T04:05:18;16.40;99.90
11005;DHT22;5555;59.622;16.556;2023-09-19T04:07:44;16.50;99.90
11005;DHT22;5555;59.622;16.556;2023-09-19T04:10:10;16.50;99.90
11005;DHT22;5555;59.622;16.556;2023-09-19T04:12:40;16.50;99.90
11005;DHT22;5555;59.622;16.556;2023-09-19T04:15:06;16.60;99.90
11005;DHT22;5555;59.622;16.556;2023-09-19T04:17:32;16.50;99.90
11005;DHT22;5555;59.622;16.556;2023-09-19T04:20:01;16.60;99.90
11005;DHT22;5555;59.622;16.556;2023-09-19T04:22:26;16.60;99.90
11005;DHT22;5555;59.622;16.556;2023-09-19T04:24:52;16.60;99.90
11005;DHT22;5555;59.622;16.556;2023-09-19T04:27:17;16.60;99.90
11005;DHT22;5555;59.622;16.556;2023-09-19T04:29:44;16.60;99.90
11005;DHT22;5555;59.622;16.556;2023-09-19T04:32:10;16.70;99.90
11005;DHT22;5555;59.622;16.556;2023-09-19T04:34:36;16.70;99.90
11005;DHT22;5555;59.622;16.556;2023-09-19T04:37:03;16.70;99.90
11005;DHT22;5555;59.622;16.556;2023-09-19T04:39:29;16.70;99.90
11005;DHT22;5555;59.622;16.556;2023-09-19T04:41:55;16.70;99.90
11005;DHT22;5555;59.622;16.556;2023-09-19T04:44:20;16.70;99.90
11005;DHT22;5555;59.622;16.556;2023-09-19T04:46:46;16.70;99.90
11005;DHT22;5555;59.622;16.556;2023-09-19T04:49:12;16.70;99.90
11005;DHT22;5555;59.622;16.556;2023-09-19T04:51:38;16.80;99.90
11005;DHT22;5555;59.622;16.556;2023-09-19T04:54:05;16.80;99.90
11005;DHT22;5555;59.622;16.556;2023-09-19T04:56:31;16.70;99.90
11005;DHT22;5555;59.622;16.556;2023-09-19T04:58:58;16.80;99.90
11005;DHT22;5555;59.622;16.556;2023-09-19T05:01:24;16.80;99.90
11005;DHT22;5555;59.622;16.556;2023-09-19T05:03:55;16.80;99.90
11005;DHT22;5555;59.622;16.556;2023-09-19T05:06:20;16.80;99.90
11005;DHT22;5555;59.622;16.556;2023-09-19T05:08:48;16.80;99.90
11005;DHT22;5555;59.622;16.556;2023-09-19T05:11:21;16.80;99.90
11005;DHT22;5555;59.622;16.556;2023-09-19T05:13:48;16.80;99.90
11005;DHT22;5555;59.622;16.556;2023-09-19T05:16:15;16.80;99.90
11005;DHT22;5555;59.622;16.556;2023-09-19T05:18:41;16.80;99.90
11005;DHT22;5555;59.622;16.556;2023-09-19T05:21:07;16.80;99.90
11005;DHT22;5555;59.622;16.556;2023-09-19T05:23:33;16.80;99.90
11005;DHT22;5555;59.622;16.556;2023-09-19T05:25:59;16.80;99.90
11005;DHT22;5555;59.622;16.556;2023-09-19T05:28:25;16.80;99.90
11005;DHT22;5555;59.622;16.556;2023-09-19T05:30:52;16.80;99.90
11005;DHT22;5555;59.622;16.556;2023-09-19T05:33:18;16.80;99.90
11005;DHT22;5555;59.622;16.556;2023-09-19T05:35:44;16.80;99.90
11005;DHT22;5555;59.622;16.556;2023-09-19T05:38:12;16.90;99.90
11005;DHT22;5555;59.622;16.556;2023-09-19T05:40:39;16.90;99.90
11005;DHT22;5555;59.622;16.556;2023-09-19T05:43:07;16.90;99.90
11005;DHT22;5555;59.622;16.556;2023-09-19T05:45:34;16.90;99.90
11005;DHT22;5555;59.622;16.556;2023-09-19T05:48:11;16.90;99.90
11005;DHT22;5555;59.622;16.556;2023-09-19T05:50:39;16.90;99.90
11005;DHT22;5555;59.622;16.556;2023-09-19T05:53:05;16.90;99.90
11005;DHT22;5555;59.622;16.556;2023-09-19T05:55:32;16.90;99.90
11005;DHT22;5555;59.622;16.556;2023-09-19T05:57:57;16.90;99.90
11005;DHT22;5555;59.622;16.556;2023-09-19T06:00:24;16.90;99.90
11005;DHT22;5555;59.622;16.556;2023-09-19T06:02:56;16.90;99.90
11005;DHT22;5555;59.622;16.556;2023-09-19T06:05:23;16.90;99.90
11005;DHT22;5555;59.622;16.556;2023-09-19T06:07:49;16.90;99.90
11005;DHT22;5555;59.622;16.556;2023-09-19T06:10:16;16.90;99.90
11005;DHT22;5555;59.622;16.556;2023-09-19T06:12:42;16.90;99.90
11005;DHT22;5555;59.622;16.556;2023-09-19T06:15:09;16.90;99.90
11005;DHT22;5555;59.622;16.556;2023-09-19T06:17:41;17.00;99.90
11005;DHT22;5555;59.622;16.556;2023-09-19T06:20:07;17.00;99.90
11005;DHT22;5555;59.622;16.556;2023-09-19T06:22:40;17.00;99.90
11005;DHT22;5555;59.622;16.556;2023-09-19T06:25:07;17.00;99.90
11005;DHT22;5555;59.622;16.556;2023-09-19T06:27:33;17.00;99.90
11005;DHT22;5555;59.622;16.556;2023-09-19T06:30:01;17.00;99.90
11005;DHT22;5555;59.622;16.556;2023-09-19T06:32:28;17.00;99.90
11005;DHT22;5555;59.622;16.556;2023-09-19T06:34:54;17.00;99.90
11005;DHT22;5555;59.622;16.556;2023-09-19T06:37:20;17.00;99.90
11005;DHT22;5555;59.622;16.556;2023-09-19T06:39:47;17.00;99.90
11005;DHT22;5555;59.622;16.556;2023-09-19T06:42:16;17.00;99.90
11005;DHT22;5555;59.622;16.556;2023-09-19T06:44:43;17.00;99.90
11005;DHT22;5555;59.622;16.556;2023-09-19T06:47:09;17.00;99.90
11005;DHT22;5555;59.622;16.556;2023-09-19T06:49:36;17.00;99.90
11005;DHT22;5555;59.622;16.556;2023-09-19T06:52:01;17.00;99.90
11005;DHT22;5555;59.622;16.556;2023-09-19T06:54:28;17.00;99.90
11005;DHT22;5555;59.622;16.556;2023-09-19T06:56:57;17.10;99.90
11005;DHT22;5555;59.622;16.556;2023-09-19T06:59:25;17.10;99.90
11005;DHT22;5555;59.622;16.556;2023-09-19T07:01:51;17.10;99.90
11005;DHT22;5555;59.622;16.556;2023-09-19T07:04:17;17.20;99.90
11005;DHT22;5555;59.622;16.556;2023-09-19T07:06:50;17.20;99.90
11005;DHT22;5555;59.622;16.556;2023-09-19T07:09:16;17.20;99.90
11005;DHT22;5555;59.622;16.556;2023-09-19T07:11:42;17.30;99.90
11005;DHT22;5555;59.622;16.556;2023-09-19T07:14:08;17.30;99.90
11005;DHT22;5555;59.622;16.556;2023-09-19T07:16:37;17.40;99.90
11005;DHT22;5555;59.622;16.556;2023-09-19T07:19:04;17.50;99.90
11005;DHT22;5555;59.622;16.556;2023-09-19T07:21:30;17.50;99.90
11005;DHT22;5555;59.622;16.556;2023-09-19T07:23:56;17.50;99.90
11005;DHT22;5555;59.622;16.556;2023-09-19T07:26:21;17.50;99.90
11005;DHT22;5555;59.622;16.556;2023-09-19T07:28:47;17.50;99.90
11005;DHT22;5555;59.622;16.556;2023-09-19T07:31:13;17.50;99.90
11005;DHT22;5555;59.622;16.556;2023-09-19T07:33:40;17.50;99.90
11005;DHT22;5555;59.622;16.556;2023-09-19T07:36:06;17.50;99.90
11005;DHT22;5555;59.622;16.556;2023-09-19T07:38:37;17.60;99.90
11005;DHT22;5555;59.622;16.556;2023-09-19T07:41:03;17.50;99.90
11005;DHT22;5555;59.622;16.556;2023-09-19T07:43:29;17.60;99.90
11005;DHT22;5555;59.622;16.556;2023-09-19T07:45:54;17.60;99.90
11005;DHT22;5555;59.622;16.556;2023-09-19T07:48:20;17.60;99.90
11005;DHT22;5555;59.622;16.556;2023-09-19T07:50:45;17.60;99.90
11005;DHT22;5555;59.622;16.556;2023-09-19T07:53:11;17.60;99.90
11005;DHT22;5555;59.622;16.556;2023-09-19T07:55:40;17.60;99.90
11005;DHT22;5555;59.622;16.556;2023-09-19T07:58:07;17.60;99.90
11005;DHT22;5555;59.622;16.556;2023-09-19T08:00:32;17.70;99.90
11005;DHT22;5555;59.622;16.556;2023-09-19T08:03:00;17.70;99.90
11005;DHT22;5555;59.622;16.556;2023-09-19T08:05:26;17.80;99.90
11005;DHT22;5555;59.622;16.556;2023-09-19T08:07:53;17.90;99.90
11005;DHT22;5555;59.622;16.556;2023-09-19T08:10:19;18.00;99.90
11005;DHT22;5555;59.622;16.556;2023-09-19T08:12:47;18.00;99.90
11005;DHT22;5555;59.622;16.556;2023-09-19T08:15:17;18.10;99.90
11005;DHT22;5555;59.622;16.556;2023-09-19T08:17:43;18.20;99.90
11005;DHT22;5555;59.622;16.556;2023-09-19T08:20:09;18.30;99.90
11005;DHT22;5555;59.622;16.556;2023-09-19T08:22:47;18.30;99.90
11005;DHT22;5555;59.622;16.556;2023-09-19T08:25:14;18.30;99.90
11005;DHT22;5555;59.622;16.556;2023-09-19T08:27:39;18.40;99.90
11005;DHT22;5555;59.622;16.556;2023-09-19T08:30:05;18.50;99.90
11005;DHT22;5555;59.622;16.556;2023-09-19T08:32:31;18.80;99.90
11005;DHT22;5555;59.622;16.556;2023-09-19T08:34:57;19.20;99.90
11005;DHT22;5555;59.622;16.556;2023-09-19T08:37:23;19.30;99.90
11005;DHT22;5555;59.622;16.556;2023-09-19T08:39:48;19.50;99.90
11005;DHT22;5555;59.622;16.556;2023-09-19T08:42:14;19.70;99.90
11005;DHT22;5555;59.622;16.556;2023-09-19T08:44:42;19.70;99.90
11005;DHT22;5555;59.622;16.556;2023-09-19T08:47:10;19.80;99.90
11005;DHT22;5555;59.622;16.556;2023-09-19T08:50:04;19.70;99.90
11005;DHT22;5555;59.622;16.556;2023-09-19T08:52:41;19.70;99.90
11005;DHT22;5555;59.622;16.556;2023-09-19T08:55:11;19.60;99.90
11005;DHT22;5555;59.622;16.556;2023-09-19T08:57:38;19.60;99.90
11005;DHT22;5555;59.622;16.556;2023-09-19T09:00:08;19.40;99.90
11005;DHT22;5555;59.622;16.556;2023-09-19T09:02:41;19.40;99.90
11005;DHT22;5555;59.622;16.556;2023-09-19T09:05:09;19.50;99.90
11005;DHT22;5555;59.622;16.556;2023-09-19T09:07:40;19.80;99.90
11005;DHT22;5555;59.622;16.556;2023-09-19T09:10:06;20.00;99.90
11005;DHT22;5555;59.622;16.556;2023-09-19T09:12:33;20.40;99.90
11005;DHT22;5555;59.622;16.556;2023-09-19T09:15:02;20.40;99.90
11005;DHT22;5555;59.622;16.556;2023-09-19T09:17:29;20.40;99.90
11005;DHT22;5555;59.622;16.556;2023-09-19T09:19:55;20.40;99.90
11005;DHT22;5555;59.622;16.556;2023-09-19T09:22:21;20.10;99.90
11005;DHT22;5555;59.622;16.556;2023-09-19T09:24:53;20.10;99.90
11005;DHT22;5555;59.622;16.556;2023-09-19T09:27:20;20.00;99.90
11005;DHT22;5555;59.622;16.556;2023-09-19T09:29:48;20.30;99.90
11005;DHT22;5555;59.622;16.556;2023-09-19T09:32:21;20.30;99.90
11005;DHT22;5555;59.622;16.556;2023-09-19T09:34:50;20.20;99.90
11005;DHT22;5555;59.622;16.556;2023-09-19T09:37:20;20.10;99.90
11005;DHT22;5555;59.622;16.556;2023-09-19T09:40:02;20.30;99.90
11005;DHT22;5555;59.622;16.556;2023-09-19T09:42:54;20.40;99.90
11005;DHT22;5555;59.622;16.556;2023-09-19T09:45:24;20.60;99.90
11005;DHT22;5555;59.622;16.556;2023-09-19T09:47:59;20.60;99.90
11005;DHT22;5555;59.622;16.556;2023-09-19T09:50:34;20.10;99.90
11005;DHT22;5555;59.622;16.556;2023-09-19T09:53:26;19.80;99.90
11005;DHT22;5555;59.622;16.556;2023-09-19T09:58:26;19.30;99.90
11005;DHT22;5555;59.622;16.556;2023-09-19T10:00:58;19.20;99.90
11005;DHT22;5555;59.622;16.556;2023-09-19T10:03:36;19.00;99.90
11005;DHT22;5555;59.622;16.556;2023-09-19T10:06:06;18.80;99.90
11005;DHT22;5555;59.622;16.556;2023-09-19T10:08:36;18.60;99.90
11005;DHT22;5555;59.622;16.556;2023-09-19T10:11:15;18.60;99.90
11005;DHT22;5555;59.622;16.556;2023-09-19T10:13:42;18.60;99.90
11005;DHT22;5555;59.622;16.556;2023-09-19T10:16:10;18.90;99.90
11005;DHT22;5555;59.622;16.556;2023-09-19T10:18:36;19.10;99.90
11005;DHT22;5555;59.622;16.556;2023-09-19T10:21:04;19.10;99.90
11005;DHT22;5555;59.622;16.556;2023-09-19T10:23:32;19.10;99.90
11005;DHT22;5555;59.622;16.556;2023-09-19T10:26:01;19.40;99.90
11005;DHT22;5555;59.622;16.556;2023-09-19T10:28:28;19.40;99.90
11005;DHT22;5555;59.622;16.556;2023-09-19T10:30:56;19.20;99.90
11005;DHT22;5555;59.622;16.556;2023-09-19T10:33:24;19.10;99.90
11005;DHT22;5555;59.622;16.556;2023-09-19T10:35:57;19.20;99.90
11005;DHT22;5555;59.622;16.556;2023-09-19T10:38:26;19.50;99.90
11005;DHT22;5555;59.622;16.556;2023-09-19T10:40:55;19.60;99.90
11005;DHT22;5555;59.622;16.556;2023-09-19T10:43:28;19.90;99.90
11005;DHT22;5555;59.622;16.556;2023-09-19T10:46:00;19.70;99.90
11005;DHT22;5555;59.622;16.556;2023-09-19T10:48:26;19.60;99.90
11005;DHT22;5555;59.622;16.556;2023-09-19T10:51:04;19.70;99.90
11005;DHT22;5555;59.622;16.556;2023-09-19T10:53:53;19.70;99.90
11005;DHT22;5555;59.622;16.556;2023-09-19T10:56:30;19.90;99.90
11005;DHT22;5555;59.622;16.556;2023-09-19T10:59:10;20.50;99.90
11005;DHT22;5555;59.622;16.556;2023-09-19T11:01:50;20.60;99.90
11005;DHT22;5555;59.622;16.556;2023-09-19T11:04:37;20.80;99.90
11005;DHT22;5555;59.622;16.556;2023-09-19T11:07:11;20.70;99.90
11005;DHT22;5555;59.622;16.556;2023-09-19T11:09:51;20.50;99.90
11005;DHT22;5555;59.622;16.556;2023-09-19T11:12:48;20.50;99.90
11005;DHT22;5555;59.622;16.556;2023-09-19T11:26:50;19.80;99.90
11005;DHT22;5555;59.622;16.556;2023-09-19T11:29:27;19.80;99.90
11005;DHT22;5555;59.622;16.556;2023-09-19T11:31:54;19.60;99.90
11005;DHT22;5555;59.622;16.556;2023-09-19T11:39:40;19.00;99.90
11005;DHT22;5555;59.622;16.556;2023-09-19T11:48:13;19.70;99.90
11005;DHT22;5555;59.622;16.556;2023-09-19T11:50:42;19.90;99.90
11005;DHT22;5555;59.622;16.556;2023-09-19T11:53:11;20.10;99.90
11005;DHT22;5555;59.622;16.556;2023-09-19T11:55:38;20.10;99.90
11005;DHT22;5555;59.622;16.556;2023-09-19T11:58:06;20.60;99.90
11005;DHT22;5555;59.622;16.556;2023-09-19T12:00:33;21.00;99.90
11005;DHT22;5555;59.622;16.556;2023-09-19T12:03:03;21.00;99.90
11005;DHT22;5555;59.622;16.556;2023-09-19T12:05:31;21.50;99.90
11005;DHT22;5555;59.622;16.556;2023-09-19T12:07:59;22.70;99.90
11005;DHT22;5555;59.622;16.556;2023-09-19T12:10:25;22.40;99.90
11005;DHT22;5555;59.622;16.556;2023-09-19T12:12:50;22.90;99.90
11005;DHT22;5555;59.622;16.556;2023-09-19T12:15:25;23.10;99.90
11005;DHT22;5555;59.622;16.556;2023-09-19T12:17:59;22.70;99.90
11005;DHT22;5555;59.622;16.556;2023-09-19T12:20:26;21.60;99.90
11005;DHT22;5555;59.622;16.556;2023-09-19T12:23:13;21.10;99.90
11005;DHT22;5555;59.622;16.556;2023-09-19T12:25:45;20.40;99.90
11005;DHT22;5555;59.622;16.556;2023-09-19T12:28:16;19.80;99.90
11005;DHT22;5555;59.622;16.556;2023-09-19T12:30:47;19.60;99.90
11005;DHT22;5555;59.622;16.556;2023-09-19T12:33:16;19.70;99.90
11005;DHT22;5555;59.622;16.556;2023-09-19T12:35:45;19.60;99.90
11005;DHT22;5555;59.622;16.556;2023-09-19T12:38:10;19.40;99.90
11005;DHT22;5555;59.622;16.556;2023-09-19T12:40:38;19.10;99.90
11005;DHT22;5555;59.622;16.556;2023-09-19T12:43:08;19.00;99.90
11005;DHT22;5555;59.622;16.556;2023-09-19T12:45:35;19.10;99.90
11005;DHT22;5555;59.622;16.556;2023-09-19T12:48:21;19.10;99.90
11005;DHT22;5555;59.622;16.556;2023-09-19T12:51:09;19.00;99.90
11005;DHT22;5555;59.622;16.556;2023-09-19T12:53:45;18.70;99.90
11005;DHT22;5555;59.622;16.556;2023-09-19T12:56:18;18.40;99.90
11005;DHT22;5555;59.622;16.556;2023-09-19T12:58:53;17.40;99.90
11005;DHT22;5555;59.622;16.556;2023-09-19T13:01:25;16.70;99.90
11005;DHT22;5555;59.622;16.556;2023-09-19T13:04:19;16.10;99.90
11005;DHT22;5555;59.622;16.556;2023-09-19T13:06:46;15.60;99.90
11005;DHT22;5555;59.622;16.556;2023-09-19T13:09:14;15.40;99.90
11005;DHT22;5555;59.622;16.556;2023-09-19T13:11:41;15.40;99.90
11005;DHT22;5555;59.622;16.556;2023-09-19T13:14:26;15.30;99.90
11005;DHT22;5555;59.622;16.556;2023-09-19T13:17:07;15.30;99.90
11005;DHT22;5555;59.622;16.556;2023-09-19T13:19:47;15.30;99.90
11005;DHT22;5555;59.622;16.556;2023-09-19T13:22:37;15.30;99.90
11005;DHT22;5555;59.622;16.556;2023-09-19T13:25:09;15.30;99.90
11005;DHT22;5555;59.622;16.556;2023-09-19T13:27:43;15.40;99.90
11005;DHT22;5555;59.622;16.556;2023-09-19T13:30:10;15.50;99.90
11005;DHT22;5555;59.622;16.556;2023-09-19T13:32:36;15.80;99.90
11005;DHT22;5555;59.622;16.556;2023-09-19T13:35:03;16.20;99.90
11005;DHT22;5555;59.622;16.556;2023-09-19T13:37:30;16.30;99.90
11005;DHT22;5555;59.622;16.556;2023-09-19T13:39:56;16.20;99.90
11005;DHT22;5555;59.622;16.556;2023-09-19T13:42:24;16.20;99.90
11005;DHT22;5555;59.622;16.556;2023-09-19T13:44:50;16.10;99.90
11005;DHT22;5555;59.622;16.556;2023-09-19T13:47:17;16.00;99.90
11005;DHT22;5555;59.622;16.556;2023-09-19T13:49:50;16.00;99.90
11005;DHT22;5555;59.622;16.556;2023-09-19T13:52:21;16.00;99.90
11005;DHT22;5555;59.622;16.556;2023-09-19T13:54:51;16.20;99.90
11005;DHT22;5555;59.622;16.556;2023-09-19T13:57:18;16.90;99.90
11005;DHT22;5555;59.622;16.556;2023-09-19T13:59:44;17.20;99.90
11005;DHT22;5555;59.622;16.556;2023-09-19T14:02:09;17.50;99.90
11005;DHT22;5555;59.622;16.556;2023-09-19T14:04:35;18.40;99.90
11005;DHT22;5555;59.622;16.556;2023-09-19T14:07:01;19.00;99.90
11005;DHT22;5555;59.622;16.556;2023-09-19T14:09:27;19.50;99.90
11005;DHT22;5555;59.622;16.556;2023-09-19T14:11:53;18.50;99.90
11005;DHT22;5555;59.622;16.556;2023-09-19T14:14:19;18.20;99.90
11005;DHT22;5555;59.622;16.556;2023-09-19T14:16:46;17.20;99.90
11005;DHT22;5555;59.622;16.556;2023-09-19T14:19:11;16.70;99.90
11005;DHT22;5555;59.622;16.556;2023-09-19T14:21:37;16.40;99.90
11005;DHT22;5555;59.622;16.556;2023-09-19T14:24:04;16.10;99.90
11005;DHT22;5555;59.622;16.556;2023-09-19T14:26:38;16.10;99.90
11005;DHT22;5555;59.622;16.556;2023-09-19T14:29:03;16.10;99.90
11005;DHT22;5555;59.622;16.556;2023-09-19T14:31:29;16.60;99.90
11005;DHT22;5555;59.622;16.556;2023-09-19T14:33:55;17.30;99.90
11005;DHT22;5555;59.622;16.556;2023-09-19T14:36:25;18.40;99.90
11005;DHT22;5555;59.622;16.556;2023-09-19T14:38:53;18.80;99.90
11005;DHT22;5555;59.622;16.556;2023-09-19T14:41:23;18.40;99.90
11005;DHT22;5555;59.622;16.556;2023-09-19T14:43:51;17.70;99.90
11005;DHT22;5555;59.622;16.556;2023-09-19T14:46:16;17.00;99.90
11005;DHT22;5555;59.622;16.556;2023-09-19T14:48:44;16.50;99.90
11005;DHT22;5555;59.622;16.556;2023-09-19T14:51:13;16.00;99.90
11005;DHT22;5555;59.622;16.556;2023-09-19T14:53:40;15.40;99.90
11005;DHT22;5555;59.622;16.556;2023-09-19T14:56:08;15.10;99.90
11005;DHT22;5555;59.622;16.556;2023-09-19T14:58:34;14.50;99.90
11005;DHT22;5555;59.622;16.556;2023-09-19T15:01:11;14.20;99.90
11005;DHT22;5555;59.622;16.556;2023-09-19T15:03:38;13.90;99.90
11005;DHT22;5555;59.622;16.556;2023-09-19T15:06:12;14.00;99.90
11005;DHT22;5555;59.622;16.556;2023-09-19T15:08:40;15.10;99.90
11005;DHT22;5555;59.622;16.556;2023-09-19T15:11:11;15.90;99.90
11005;DHT22;5555;59.622;16.556;2023-09-19T15:13:38;17.00;99.90
11005;DHT22;5555;59.622;16.556;2023-09-19T15:16:05;17.60;99.90
11005;DHT22;5555;59.622;16.556;2023-09-19T15:18:34;18.10;99.90
11005;DHT22;5555;59.622;16.556;2023-09-19T15:21:03;17.50;99.90
11005;DHT22;5555;59.622;16.556;2023-09-19T15:23:41;18.20;99.90
11005;DHT22;5555;59.622;16.556;2023-09-19T15:26:08;18.60;99.90
11005;DHT22;5555;59.622;16.556;2023-09-19T15:28:34;18.70;99.90
11005;DHT22;5555;59.622;16.556;2023-09-19T15:31:00;18.60;99.90
11005;DHT22;5555;59.622;16.556;2023-09-19T15:33:26;17.30;99.90
11005;DHT22;5555;59.622;16.556;2023-09-19T15:36:09;17.60;99.90
11005;DHT22;5555;59.622;16.556;2023-09-19T15:41:32;18.20;99.90
11005;DHT22;5555;59.622;16.556;2023-09-19T15:44:00;18.50;99.90
11005;DHT22;5555;59.622;16.556;2023-09-19T15:46:27;17.60;99.90
11005;DHT22;5555;59.622;16.556;2023-09-19T15:48:53;17.80;99.90
11005;DHT22;5555;59.622;16.556;2023-09-19T15:51:19;17.70;99.90
11005;DHT22;5555;59.622;16.556;2023-09-19T15:56:13;17.30;99.90
11005;DHT22;5555;59.622;16.556;2023-09-19T15:58:46;17.40;99.90
11005;DHT22;5555;59.622;16.556;2023-09-19T16:01:13;17.00;99.90
11005;DHT22;5555;59.622;16.556;2023-09-19T16:03:42;17.20;99.90
11005;DHT22;5555;59.622;16.556;2023-09-19T16:06:22;17.10;99.90
11005;DHT22;5555;59.622;16.556;2023-09-19T16:08:53;17.20;99.90
11005;DHT22;5555;59.622;16.556;2023-09-19T16:11:19;17.10;99.90
11005;DHT22;5555;59.622;16.556;2023-09-19T16:13:49;16.90;99.90
11005;DHT22;5555;59.622;16.556;2023-09-19T16:16:16;16.80;99.90
11005;DHT22;5555;59.622;16.556;2023-09-19T16:18:52;16.60;99.90
11005;DHT22;5555;59.622;16.556;2023-09-19T16:21:26;16.10;99.90
11005;DHT22;5555;59.622;16.556;2023-09-19T16:23:52;15.80;99.90
11005;DHT22;5555;59.622;16.556;2023-09-19T16:26:21;15.20;99.90
11005;DHT22;5555;59.622;16.556;2023-09-19T16:28:49;14.90;99.90
11005;DHT22;5555;59.622;16.556;2023-09-19T16:31:15;14.70;99.90
11005;DHT22;5555;59.622;16.556;2023-09-19T16:33:44;14.50;99.90